Rockville, MO (64780)

5:18 PM CDT on March 25, 2017 (GMT -0500)
leiber1 | | Change Station

Elev 0 ft 38.14 °N, 94.03 °W | Updated 6 seconds ago

Overcast
Overcast
51.3 °F
Feels Like 51.3 °F
N
3.1
Wind Variable Wind from South
Gusts 13.0 mph

Today
High -- | Low -- °F
--% Chance of Precip.
Yesterday
High -- | Low -- °F
Precip. -- in
Pressure 29.81 in
Visibility 1.2 miles
Clouds Overcast 1000 ft
Dew Point 51 °F
Humidity 99%
Rainfall 0.36 in
Snow Depth Not available.
7:11 AM 7:33 PM
Waning Crescent, 6% visible
METAR KGLY 252215Z AUTO 24014KT 1 1/4SM -RA OVC010 12/10 A2981 RMK AO2
Pressure 29.81 in
Visibility 1.2 miles
Clouds Overcast 1000 ft
Dew Point 51 °F
Humidity 99%
Rainfall 0.36 in
Snow Depth Not available.
7:11 AM 7:33 PM
Waning Crescent, 6% visible
METAR KGLY 252215Z AUTO 24014KT 1 1/4SM -RA OVC010 12/10 A2981 RMK AO2

Get Severe Weather Alerts

Thanks for signing up!

Be on the lookout for a verification email in your inbox.

You'll start receiving the daily forecast at 8 AM.

×

10-Day Weather Forecast

Almanac

Astronomy

Mar. 25, 2017 Rise Set
Actual Time
Civil Twilight
Nautical Twilight
Astronomical Twilight
Moon
Length of Visible Light
Length of Day
Tomorrow will be .
, % of the Moon is Illuminated

Today's Extremes

State Highs State Lows

Community

WunderPhotos

Upload Photos

1,962,540 photos uploaded!

WunderBlog® & News

Nearby

Air Quality

  Air Quality AQ Index Pollutant
Not available.

Snow Depth

Station Depth Elevation

Earthquake Activity

City Distance Mag. Time & Date
Minimum magnitude displayed is 2.5.

Earthquake Activity

City Distance Mag. Time & Date
Minimum magnitude displayed is 2.5.

Coastal Water Temperatures

Place Temperature

Stations

Nearby Weather Stations

Station Location Temp. Windchill Dew Point Humidity Wind Precip. Elev Updated Type
                   

Watches & Warnings

There are currently no watches in effect.